Weather Center

VHHH METAR :
VHHH 310330Z 32003KT CAVOK 20/05 Q1019 NOSIG

VHHH TAF :
VHHH 310200Z 3103/0109 09010KT 9999 FEW030 TX21/3106Z TX22/0106Z TN17/3123Z
TEMPO 3103/3109 29010KT
TEMPO 0103/0109 29010KT

VMMC METAR :
VMMCH

VMMC TAF :
VMMC 302300Z 3100/0106 09008KT 9999 FEW035
TEMPO 3100/3104 02010KT

Comments are closed